sensor_id;sensor_type;location;lat;lon;timestamp;temperature;humidity
24338;DHT22;12457;50.832;4.346;2022-10-31T00:01:21;15.40;99.90
24338;DHT22;12457;50.832;4.346;2022-10-31T00:03:47;15.30;99.90
24338;DHT22;12457;50.832;4.346;2022-10-31T00:06:13;15.20;99.90
24338;DHT22;12457;50.832;4.346;2022-10-31T00:08:39;15.10;99.90
24338;DHT22;12457;50.832;4.346;2022-10-31T00:11:09;15.10;99.90
24338;DHT22;12457;50.832;4.346;2022-10-31T00:13:35;15.10;99.90
24338;DHT22;12457;50.832;4.346;2022-10-31T00:16:02;15.10;99.90
24338;DHT22;12457;50.832;4.346;2022-10-31T00:18:27;15.10;99.90
24338;DHT22;12457;50.832;4.346;2022-10-31T00:21:00;15.10;99.90
24338;DHT22;12457;50.832;4.346;2022-10-31T00:23:26;15.10;99.90
24338;DHT22;12457;50.832;4.346;2022-10-31T00:25:52;15.10;99.90
24338;DHT22;12457;50.832;4.346;2022-10-31T00:28:18;15.10;99.90
24338;DHT22;12457;50.832;4.346;2022-10-31T00:30:45;15.00;99.90
24338;DHT22;12457;50.832;4.346;2022-10-31T00:33:10;14.90;99.90
24338;DHT22;12457;50.832;4.346;2022-10-31T00:35:36;14.90;99.90
24338;DHT22;12457;50.832;4.346;2022-10-31T00:38:02;14.80;99.90
24338;DHT22;12457;50.832;4.346;2022-10-31T00:40:28;14.80;99.90
24338;DHT22;12457;50.832;4.346;2022-10-31T00:42:54;14.80;99.90
24338;DHT22;12457;50.832;4.346;2022-10-31T00:45:19;14.70;99.90
24338;DHT22;12457;50.832;4.346;2022-10-31T00:47:45;14.60;99.90
24338;DHT22;12457;50.832;4.346;2022-10-31T00:50:11;14.70;99.90
24338;DHT22;12457;50.832;4.346;2022-10-31T00:52:37;14.50;99.90
24338;DHT22;12457;50.832;4.346;2022-10-31T00:55:03;14.40;99.90
24338;DHT22;12457;50.832;4.346;2022-10-31T00:57:29;14.40;99.90
24338;DHT22;12457;50.832;4.346;2022-10-31T00:59:55;14.40;99.90
24338;DHT22;12457;50.832;4.346;2022-10-31T01:02:20;14.40;99.90
24338;DHT22;12457;50.832;4.346;2022-10-31T01:04:46;14.30;99.90
24338;DHT22;12457;50.832;4.346;2022-10-31T01:07:12;14.30;99.90
24338;DHT22;12457;50.832;4.346;2022-10-31T01:09:39;14.40;99.90
24338;DHT22;12457;50.832;4.346;2022-10-31T01:12:08;14.30;99.90
24338;DHT22;12457;50.832;4.346;2022-10-31T01:14:42;14.30;99.90
24338;DHT22;12457;50.832;4.346;2022-10-31T01:17:12;14.40;99.90
24338;DHT22;12457;50.832;4.346;2022-10-31T01:19:38;14.40;99.90
24338;DHT22;12457;50.832;4.346;2022-10-31T01:22:04;14.50;99.90
24338;DHT22;12457;50.832;4.346;2022-10-31T01:24:29;14.50;99.90
24338;DHT22;12457;50.832;4.346;2022-10-31T01:26:55;14.50;99.90
24338;DHT22;12457;50.832;4.346;2022-10-31T01:29:21;14.50;99.90
24338;DHT22;12457;50.832;4.346;2022-10-31T01:31:52;14.40;99.90
24338;DHT22;12457;50.832;4.346;2022-10-31T01:34:20;14.40;99.90
24338;DHT22;12457;50.832;4.346;2022-10-31T01:36:47;14.30;99.90
24338;DHT22;12457;50.832;4.346;2022-10-31T01:39:17;14.20;99.90
24338;DHT22;12457;50.832;4.346;2022-10-31T01:41:47;14.10;99.90
24338;DHT22;12457;50.832;4.346;2022-10-31T01:46:43;14.10;99.90
24338;DHT22;12457;50.832;4.346;2022-10-31T01:52:06;14.10;99.90
24338;DHT22;12457;50.832;4.346;2022-10-31T01:54:36;14.10;99.90
24338;DHT22;12457;50.832;4.346;2022-10-31T01:57:05;14.10;99.90
24338;DHT22;12457;50.832;4.346;2022-10-31T01:59:35;14.10;99.90
24338;DHT22;12457;50.832;4.346;2022-10-31T02:02:05;14.00;99.90
24338;DHT22;12457;50.832;4.346;2022-10-31T02:04:32;14.00;99.90
24338;DHT22;12457;50.832;4.346;2022-10-31T02:07:02;14.00;99.90
24338;DHT22;12457;50.832;4.346;2022-10-31T02:09:32;13.90;99.90
24338;DHT22;12457;50.832;4.346;2022-10-31T02:11:59;13.90;99.90
24338;DHT22;12457;50.832;4.346;2022-10-31T02:14:28;13.80;99.90
24338;DHT22;12457;50.832;4.346;2022-10-31T02:16:54;13.80;99.90
24338;DHT22;12457;50.832;4.346;2022-10-31T02:19:40;13.80;99.90
24338;DHT22;12457;50.832;4.346;2022-10-31T02:22:37;13.80;99.90
24338;DHT22;12457;50.832;4.346;2022-10-31T02:25:35;13.80;99.90
24338;DHT22;12457;50.832;4.346;2022-10-31T02:30:48;13.70;99.90
24338;DHT22;12457;50.832;4.346;2022-10-31T02:33:24;13.70;99.90
24338;DHT22;12457;50.832;4.346;2022-10-31T02:38:47;13.60;99.90
24338;DHT22;12457;50.832;4.346;2022-10-31T02:41:41;13.70;99.90
24338;DHT22;12457;50.832;4.346;2022-10-31T02:47:14;13.50;99.90
24338;DHT22;12457;50.832;4.346;2022-10-31T02:52:24;13.50;99.90
24338;DHT22;12457;50.832;4.346;2022-10-31T02:54:50;13.50;99.90
24338;DHT22;12457;50.832;4.346;2022-10-31T02:57:28;13.40;99.90
24338;DHT22;12457;50.832;4.346;2022-10-31T03:00:06;13.40;99.90
24338;DHT22;12457;50.832;4.346;2022-10-31T03:02:48;13.30;99.90
24338;DHT22;12457;50.832;4.346;2022-10-31T03:10:55;13.30;99.90
24338;DHT22;12457;50.832;4.346;2022-10-31T03:13:48;13.30;99.90
24338;DHT22;12457;50.832;4.346;2022-10-31T03:21:44;13.30;99.90
24338;DHT22;12457;50.832;4.346;2022-10-31T03:24:12;13.20;99.90
24338;DHT22;12457;50.832;4.346;2022-10-31T03:26:42;13.30;99.90
24338;DHT22;12457;50.832;4.346;2022-10-31T03:29:13;13.40;99.90
24338;DHT22;12457;50.832;4.346;2022-10-31T03:31:50;13.30;99.90
24338;DHT22;12457;50.832;4.346;2022-10-31T03:34:18;13.30;99.90
24338;DHT22;12457;50.832;4.346;2022-10-31T03:36:47;13.30;99.90
24338;DHT22;12457;50.832;4.346;2022-10-31T03:39:16;13.30;99.90
24338;DHT22;12457;50.832;4.346;2022-10-31T03:41:47;13.20;99.90
24338;DHT22;12457;50.832;4.346;2022-10-31T03:44:18;13.10;99.90
24338;DHT22;12457;50.832;4.346;2022-10-31T03:46:45;13.10;99.90
24338;DHT22;12457;50.832;4.346;2022-10-31T03:49:11;13.10;99.90
24338;DHT22;12457;50.832;4.346;2022-10-31T03:52:16;13.00;99.90
24338;DHT22;12457;50.832;4.346;2022-10-31T03:54:46;13.10;99.90
24338;DHT22;12457;50.832;4.346;2022-10-31T04:00:15;13.10;99.90
24338;DHT22;12457;50.832;4.346;2022-10-31T04:03:07;13.00;99.90
24338;DHT22;12457;50.832;4.346;2022-10-31T04:05:33;13.00;99.90
24338;DHT22;12457;50.832;4.346;2022-10-31T04:08:02;13.00;99.90
24338;DHT22;12457;50.832;4.346;2022-10-31T04:10:30;13.10;99.90
24338;DHT22;12457;50.832;4.346;2022-10-31T04:13:01;13.10;99.90
24338;DHT22;12457;50.832;4.346;2022-10-31T04:15:29;13.00;99.90
24338;DHT22;12457;50.832;4.346;2022-10-31T04:17:58;13.00;99.90
24338;DHT22;12457;50.832;4.346;2022-10-31T04:20:36;13.00;99.90
24338;DHT22;12457;50.832;4.346;2022-10-31T04:23:03;12.90;99.90
24338;DHT22;12457;50.832;4.346;2022-10-31T04:25:29;12.90;99.90
24338;DHT22;12457;50.832;4.346;2022-10-31T04:27:55;13.00;99.90
24338;DHT22;12457;50.832;4.346;2022-10-31T04:30:20;12.90;99.90
24338;DHT22;12457;50.832;4.346;2022-10-31T04:32:46;12.90;99.90
24338;DHT22;12457;50.832;4.346;2022-10-31T04:35:12;12.90;99.90
24338;DHT22;12457;50.832;4.346;2022-10-31T04:37:37;12.90;99.90
24338;DHT22;12457;50.832;4.346;2022-10-31T04:40:06;12.90;99.90
24338;DHT22;12457;50.832;4.346;2022-10-31T04:42:32;13.00;99.90
24338;DHT22;12457;50.832;4.346;2022-10-31T04:44:57;13.00;99.90
24338;DHT22;12457;50.832;4.346;2022-10-31T04:47:23;13.00;99.90
24338;DHT22;12457;50.832;4.346;2022-10-31T04:49:49;13.00;99.90
24338;DHT22;12457;50.832;4.346;2022-10-31T04:52:14;13.00;99.90
24338;DHT22;12457;50.832;4.346;2022-10-31T04:54:40;13.10;99.90
24338;DHT22;12457;50.832;4.346;2022-10-31T04:57:06;13.10;99.90
24338;DHT22;12457;50.832;4.346;2022-10-31T04:59:31;13.10;99.90
24338;DHT22;12457;50.832;4.346;2022-10-31T05:01:57;13.10;99.90
24338;DHT22;12457;50.832;4.346;2022-10-31T05:04:22;13.00;99.90
24338;DHT22;12457;50.832;4.346;2022-10-31T05:06:48;13.20;99.90
24338;DHT22;12457;50.832;4.346;2022-10-31T05:09:14;13.20;99.90
24338;DHT22;12457;50.832;4.346;2022-10-31T05:11:39;13.20;99.90
24338;DHT22;12457;50.832;4.346;2022-10-31T05:14:05;13.20;99.90
24338;DHT22;12457;50.832;4.346;2022-10-31T05:16:31;13.30;99.90
24338;DHT22;12457;50.832;4.346;2022-10-31T05:18:56;13.30;99.90
24338;DHT22;12457;50.832;4.346;2022-10-31T05:21:22;13.20;99.90
24338;DHT22;12457;50.832;4.346;2022-10-31T05:23:47;13.30;99.90
24338;DHT22;12457;50.832;4.346;2022-10-31T05:26:13;13.40;99.90
24338;DHT22;12457;50.832;4.346;2022-10-31T05:28:39;13.40;99.90
24338;DHT22;12457;50.832;4.346;2022-10-31T05:31:04;13.50;99.90
24338;DHT22;12457;50.832;4.346;2022-10-31T05:33:30;13.50;99.90
24338;DHT22;12457;50.832;4.346;2022-10-31T05:35:56;13.50;99.90
24338;DHT22;12457;50.832;4.346;2022-10-31T05:38:21;13.40;99.90
24338;DHT22;12457;50.832;4.346;2022-10-31T05:40:47;13.40;99.90
24338;DHT22;12457;50.832;4.346;2022-10-31T05:43:12;13.40;99.90
24338;DHT22;12457;50.832;4.346;2022-10-31T05:45:38;13.40;99.90
24338;DHT22;12457;50.832;4.346;2022-10-31T05:48:04;13.40;99.90
24338;DHT22;12457;50.832;4.346;2022-10-31T05:50:31;13.50;99.90
24338;DHT22;12457;50.832;4.346;2022-10-31T05:53:04;13.50;99.90
24338;DHT22;12457;50.832;4.346;2022-10-31T05:55:31;13.40;99.90
24338;DHT22;12457;50.832;4.346;2022-10-31T05:57:57;13.50;99.90
24338;DHT22;12457;50.832;4.346;2022-10-31T06:00:24;13.50;99.90
24338;DHT22;12457;50.832;4.346;2022-10-31T06:03:00;13.60;99.90
24338;DHT22;12457;50.832;4.346;2022-10-31T06:05:27;13.60;99.90
24338;DHT22;12457;50.832;4.346;2022-10-31T06:07:53;13.60;99.90
24338;DHT22;12457;50.832;4.346;2022-10-31T06:10:18;13.70;99.90
24338;DHT22;12457;50.832;4.346;2022-10-31T06:12:46;13.80;99.90
24338;DHT22;12457;50.832;4.346;2022-10-31T06:15:12;13.70;99.90
24338;DHT22;12457;50.832;4.346;2022-10-31T06:17:39;13.80;99.90
24338;DHT22;12457;50.832;4.346;2022-10-31T06:20:05;13.80;99.90
24338;DHT22;12457;50.832;4.346;2022-10-31T06:22:31;13.80;99.90
24338;DHT22;12457;50.832;4.346;2022-10-31T06:24:57;13.80;99.90
24338;DHT22;12457;50.832;4.346;2022-10-31T06:27:23;13.80;99.90
24338;DHT22;12457;50.832;4.346;2022-10-31T06:29:49;13.90;99.90
24338;DHT22;12457;50.832;4.346;2022-10-31T06:32:15;13.90;99.90
24338;DHT22;12457;50.832;4.346;2022-10-31T06:34:41;14.00;99.90
24338;DHT22;12457;50.832;4.346;2022-10-31T06:37:08;14.10;99.90
24338;DHT22;12457;50.832;4.346;2022-10-31T06:39:34;14.00;99.90
24338;DHT22;12457;50.832;4.346;2022-10-31T06:42:00;14.10;99.90
24338;DHT22;12457;50.832;4.346;2022-10-31T06:44:27;14.10;99.90
24338;DHT22;12457;50.832;4.346;2022-10-31T06:46:53;14.20;99.90
24338;DHT22;12457;50.832;4.346;2022-10-31T06:49:19;14.20;99.90
24338;DHT22;12457;50.832;4.346;2022-10-31T06:51:48;14.20;99.90
24338;DHT22;12457;50.832;4.346;2022-10-31T06:54:14;14.20;99.90
24338;DHT22;12457;50.832;4.346;2022-10-31T06:56:39;14.30;99.90
24338;DHT22;12457;50.832;4.346;2022-10-31T06:59:05;14.40;99.90
24338;DHT22;12457;50.832;4.346;2022-10-31T07:01:31;14.40;99.90
24338;DHT22;12457;50.832;4.346;2022-10-31T07:03:57;14.50;99.90
24338;DHT22;12457;50.832;4.346;2022-10-31T07:06:24;14.50;99.90
24338;DHT22;12457;50.832;4.346;2022-10-31T07:08:50;14.60;99.90
24338;DHT22;12457;50.832;4.346;2022-10-31T07:11:16;14.50;99.90
24338;DHT22;12457;50.832;4.346;2022-10-31T07:13:41;14.50;99.90
24338;DHT22;12457;50.832;4.346;2022-10-31T07:16:07;14.40;99.90
24338;DHT22;12457;50.832;4.346;2022-10-31T07:18:34;14.40;99.90
24338;DHT22;12457;50.832;4.346;2022-10-31T07:21:00;14.40;99.90
24338;DHT22;12457;50.832;4.346;2022-10-31T07:23:25;14.40;99.90
24338;DHT22;12457;50.832;4.346;2022-10-31T07:25:56;14.40;99.90
24338;DHT22;12457;50.832;4.346;2022-10-31T07:28:22;14.30;99.90
24338;DHT22;12457;50.832;4.346;2022-10-31T07:30:52;14.30;99.90
24338;DHT22;12457;50.832;4.346;2022-10-31T07:33:19;14.40;99.90
24338;DHT22;12457;50.832;4.346;2022-10-31T07:35:46;14.40;99.90
24338;DHT22;12457;50.832;4.346;2022-10-31T07:38:13;14.40;99.90
24338;DHT22;12457;50.832;4.346;2022-10-31T07:40:39;14.40;99.90
24338;DHT22;12457;50.832;4.346;2022-10-31T07:43:06;14.40;99.90
24338;DHT22;12457;50.832;4.346;2022-10-31T07:45:32;14.50;99.90
24338;DHT22;12457;50.832;4.346;2022-10-31T07:47:58;14.60;99.90
24338;DHT22;12457;50.832;4.346;2022-10-31T07:50:29;14.60;99.90
24338;DHT22;12457;50.832;4.346;2022-10-31T07:52:59;14.80;99.90
24338;DHT22;12457;50.832;4.346;2022-10-31T07:55:25;14.80;99.90
24338;DHT22;12457;50.832;4.346;2022-10-31T07:57:59;14.80;99.90
24338;DHT22;12457;50.832;4.346;2022-10-31T08:00:25;14.80;99.90
24338;DHT22;12457;50.832;4.346;2022-10-31T08:03:08;14.60;99.90
24338;DHT22;12457;50.832;4.346;2022-10-31T08:05:34;14.60;99.90
24338;DHT22;12457;50.832;4.346;2022-10-31T08:08:00;14.70;99.90
24338;DHT22;12457;50.832;4.346;2022-10-31T08:10:27;14.80;99.90
24338;DHT22;12457;50.832;4.346;2022-10-31T08:13:01;14.80;99.90
24338;DHT22;12457;50.832;4.346;2022-10-31T08:15:27;14.80;99.90
24338;DHT22;12457;50.832;4.346;2022-10-31T08:17:53;14.80;99.90
24338;DHT22;12457;50.832;4.346;2022-10-31T08:20:20;14.70;99.90
24338;DHT22;12457;50.832;4.346;2022-10-31T08:22:53;14.70;99.90
24338;DHT22;12457;50.832;4.346;2022-10-31T08:25:19;14.70;99.90
24338;DHT22;12457;50.832;4.346;2022-10-31T08:27:49;14.80;99.90
24338;DHT22;12457;50.832;4.346;2022-10-31T08:30:15;14.80;99.90
24338;DHT22;12457;50.832;4.346;2022-10-31T08:32:41;14.80;99.90
24338;DHT22;12457;50.832;4.346;2022-10-31T08:35:07;14.80;99.90
24338;DHT22;12457;50.832;4.346;2022-10-31T08:37:33;14.80;99.90
24338;DHT22;12457;50.832;4.346;2022-10-31T08:39:59;14.80;99.90
24338;DHT22;12457;50.832;4.346;2022-10-31T08:42:24;14.90;99.90
24338;DHT22;12457;50.832;4.346;2022-10-31T08:44:50;14.90;99.90
24338;DHT22;12457;50.832;4.346;2022-10-31T08:47:15;14.80;99.90
24338;DHT22;12457;50.832;4.346;2022-10-31T08:49:44;14.90;99.90
24338;DHT22;12457;50.832;4.346;2022-10-31T08:52:09;15.00;99.90
24338;DHT22;12457;50.832;4.346;2022-10-31T08:54:35;15.30;99.90
24338;DHT22;12457;50.832;4.346;2022-10-31T08:57:01;15.30;99.90
24338;DHT22;12457;50.832;4.346;2022-10-31T08:59:26;15.30;99.90
24338;DHT22;12457;50.832;4.346;2022-10-31T09:01:52;15.30;99.90
24338;DHT22;12457;50.832;4.346;2022-10-31T09:04:17;15.30;99.90
24338;DHT22;12457;50.832;4.346;2022-10-31T09:06:43;15.30;99.90
24338;DHT22;12457;50.832;4.346;2022-10-31T09:09:09;15.30;99.90
24338;DHT22;12457;50.832;4.346;2022-10-31T09:11:34;15.40;99.90
24338;DHT22;12457;50.832;4.346;2022-10-31T09:14:00;15.50;99.90
24338;DHT22;12457;50.832;4.346;2022-10-31T09:16:26;15.50;99.90
24338;DHT22;12457;50.832;4.346;2022-10-31T09:18:51;15.50;99.90
24338;DHT22;12457;50.832;4.346;2022-10-31T09:21:17;15.50;99.90
24338;DHT22;12457;50.832;4.346;2022-10-31T09:23:43;15.40;99.90
24338;DHT22;12457;50.832;4.346;2022-10-31T09:26:11;15.40;99.90
24338;DHT22;12457;50.832;4.346;2022-10-31T09:28:43;15.40;99.90
24338;DHT22;12457;50.832;4.346;2022-10-31T09:31:10;15.40;99.90
24338;DHT22;12457;50.832;4.346;2022-10-31T09:33:35;15.60;99.90
24338;DHT22;12457;50.832;4.346;2022-10-31T09:36:02;15.70;99.90
24338;DHT22;12457;50.832;4.346;2022-10-31T09:38:31;15.80;99.90
24338;DHT22;12457;50.832;4.346;2022-10-31T09:41:16;16.00;99.90
24338;DHT22;12457;50.832;4.346;2022-10-31T09:46:49;16.20;99.90
24338;DHT22;12457;50.832;4.346;2022-10-31T09:49:59;16.20;99.90
24338;DHT22;12457;50.832;4.346;2022-10-31T09:52:36;16.20;99.90
24338;DHT22;12457;50.832;4.346;2022-10-31T09:55:27;16.30;99.90
24338;DHT22;12457;50.832;4.346;2022-10-31T09:57:55;16.40;99.90
24338;DHT22;12457;50.832;4.346;2022-10-31T10:00:22;16.60;99.90
24338;DHT22;12457;50.832;4.346;2022-10-31T10:03:11;16.80;99.90
24338;DHT22;12457;50.832;4.346;2022-10-31T10:05:46;17.00;99.90
24338;DHT22;12457;50.832;4.346;2022-10-31T10:08:19;17.10;99.90
24338;DHT22;12457;50.832;4.346;2022-10-31T10:16:10;17.00;99.90
24338;DHT22;12457;50.832;4.346;2022-10-31T10:19:09;17.20;99.90
24338;DHT22;12457;50.832;4.346;2022-10-31T10:32:59;17.20;99.90
24338;DHT22;12457;50.832;4.346;2022-10-31T10:35:34;17.00;99.90
24338;DHT22;12457;50.832;4.346;2022-10-31T10:41:20;17.10;99.90
24338;DHT22;12457;50.832;4.346;2022-10-31T10:43:49;16.90;99.90
24338;DHT22;12457;50.832;4.346;2022-10-31T10:46:32;16.90;99.90
24338;DHT22;12457;50.832;4.346;2022-10-31T10:52:16;16.80;99.90
24338;DHT22;12457;50.832;4.346;2022-10-31T10:55:47;16.70;99.90
24338;DHT22;12457;50.832;4.346;2022-10-31T10:58:07;16.70;99.90
24338;DHT22;12457;50.832;4.346;2022-10-31T11:00:38;16.90;99.90
24338;DHT22;12457;50.832;4.346;2022-10-31T11:03:16;17.00;99.90
24338;DHT22;12457;50.832;4.346;2022-10-31T11:11:05;17.10;99.90
24338;DHT22;12457;50.832;4.346;2022-10-31T11:13:34;17.20;99.90
24338;DHT22;12457;50.832;4.346;2022-10-31T11:16:04;17.30;99.90
24338;DHT22;12457;50.832;4.346;2022-10-31T11:18:32;17.50;99.90
24338;DHT22;12457;50.832;4.346;2022-10-31T11:21:03;17.60;99.90
24338;DHT22;12457;50.832;4.346;2022-10-31T11:23:34;17.70;99.90
24338;DHT22;12457;50.832;4.346;2022-10-31T11:26:04;17.70;99.90
24338;DHT22;12457;50.832;4.346;2022-10-31T11:28:31;17.70;99.90
24338;DHT22;12457;50.832;4.346;2022-10-31T11:31:21;17.90;99.90
24338;DHT22;12457;50.832;4.346;2022-10-31T11:33:49;18.00;99.90
24338;DHT22;12457;50.832;4.346;2022-10-31T11:36:23;18.20;98.40
24338;DHT22;12457;50.832;4.346;2022-10-31T11:38:51;18.20;96.10
24338;DHT22;12457;50.832;4.346;2022-10-31T11:41:25;18.30;95.80
24338;DHT22;12457;50.832;4.346;2022-10-31T11:44:01;18.30;95.40
24338;DHT22;12457;50.832;4.346;2022-10-31T11:46:39;18.30;95.10
24338;DHT22;12457;50.832;4.346;2022-10-31T11:49:14;18.20;95.80
24338;DHT22;12457;50.832;4.346;2022-10-31T11:51:40;18.20;96.90
24338;DHT22;12457;50.832;4.346;2022-10-31T11:54:20;18.30;96.70
24338;DHT22;12457;50.832;4.346;2022-10-31T11:56:46;18.50;95.70
24338;DHT22;12457;50.832;4.346;2022-10-31T11:59:21;18.50;95.00
24338;DHT22;12457;50.832;4.346;2022-10-31T12:01:51;18.50;95.10
24338;DHT22;12457;50.832;4.346;2022-10-31T12:04:17;18.40;95.60
24338;DHT22;12457;50.832;4.346;2022-10-31T12:06:45;18.30;96.60
24338;DHT22;12457;50.832;4.346;2022-10-31T12:12:10;18.30;96.80
24338;DHT22;12457;50.832;4.346;2022-10-31T12:15:00;18.30;96.60
24338;DHT22;12457;50.832;4.346;2022-10-31T12:17:53;18.40;96.50
24338;DHT22;12457;50.832;4.346;2022-10-31T12:26:59;18.80;93.80
24338;DHT22;12457;50.832;4.346;2022-10-31T12:34:44;18.90;92.80
24338;DHT22;12457;50.832;4.346;2022-10-31T12:48:52;19.30;89.90
24338;DHT22;12457;50.832;4.346;2022-10-31T12:57:30;19.40;83.90
24338;DHT22;12457;50.832;4.346;2022-10-31T13:00:15;19.50;84.90
24338;DHT22;12457;50.832;4.346;2022-10-31T13:03:17;19.70;78.40
24338;DHT22;12457;50.832;4.346;2022-10-31T13:05:48;19.80;75.60
24338;DHT22;12457;50.832;4.346;2022-10-31T13:08:34;19.80;73.90
24338;DHT22;12457;50.832;4.346;2022-10-31T13:11:17;19.70;74.50
24338;DHT22;12457;50.832;4.346;2022-10-31T13:13:58;19.70;74.80
24338;DHT22;12457;50.832;4.346;2022-10-31T13:16:38;19.80;74.00
24338;DHT22;12457;50.832;4.346;2022-10-31T13:19:28;19.80;71.70
24338;DHT22;12457;50.832;4.346;2022-10-31T13:33:19;19.70;71.70
24338;DHT22;12457;50.832;4.346;2022-10-31T13:49:48;19.90;67.80
24338;DHT22;12457;50.832;4.346;2022-10-31T13:52:24;19.70;71.50
24338;DHT22;12457;50.832;4.346;2022-10-31T13:54:51;19.50;75.20
24338;DHT22;12457;50.832;4.346;2022-10-31T14:02:50;19.50;78.30
24338;DHT22;12457;50.832;4.346;2022-10-31T14:05:30;19.50;80.50
24338;DHT22;12457;50.832;4.346;2022-10-31T14:07:59;19.60;78.90
24338;DHT22;12457;50.832;4.346;2022-10-31T14:13:02;19.60;78.40
24338;DHT22;12457;50.832;4.346;2022-10-31T14:15:28;19.60;78.30
24338;DHT22;12457;50.832;4.346;2022-10-31T14:17:58;19.80;77.90
24338;DHT22;12457;50.832;4.346;2022-10-31T14:20:36;19.80;74.00
24338;DHT22;12457;50.832;4.346;2022-10-31T14:23:33;19.80;75.40
24338;DHT22;12457;50.832;4.346;2022-10-31T14:28:47;19.80;67.90
24338;DHT22;12457;50.832;4.346;2022-10-31T14:34:35;19.90;64.40
24338;DHT22;12457;50.832;4.346;2022-10-31T14:39:59;19.90;61.60
24338;DHT22;12457;50.832;4.346;2022-10-31T14:48:04;19.80;64.50
24338;DHT22;12457;50.832;4.346;2022-10-31T14:50:48;19.80;58.00
24338;DHT22;12457;50.832;4.346;2022-10-31T14:55:47;19.60;60.80
24338;DHT22;12457;50.832;4.346;2022-10-31T14:58:20;19.40;62.60
24338;DHT22;12457;50.832;4.346;2022-10-31T15:00:54;19.40;67.30
24338;DHT22;12457;50.832;4.346;2022-10-31T15:03:33;19.50;65.50
24338;DHT22;12457;50.832;4.346;2022-10-31T15:06:04;19.70;65.20
24338;DHT22;12457;50.832;4.346;2022-10-31T15:08:40;19.80;59.20
24338;DHT22;12457;50.832;4.346;2022-10-31T15:11:23;19.80;58.50
24338;DHT22;12457;50.832;4.346;2022-10-31T15:13:56;19.70;60.40
24338;DHT22;12457;50.832;4.346;2022-10-31T15:16:43;19.50;63.70
24338;DHT22;12457;50.832;4.346;2022-10-31T15:19:16;19.30;67.80
24338;DHT22;12457;50.832;4.346;2022-10-31T15:21:45;19.20;70.40
24338;DHT22;12457;50.832;4.346;2022-10-31T15:24:13;19.20;73.10
24338;DHT22;12457;50.832;4.346;2022-10-31T15:26:45;19.00;76.60
24338;DHT22;12457;50.832;4.346;2022-10-31T15:29:19;19.00;78.60
24338;DHT22;12457;50.832;4.346;2022-10-31T15:31:59;18.90;82.20
24338;DHT22;12457;50.832;4.346;2022-10-31T15:34:34;18.80;85.00
24338;DHT22;12457;50.832;4.346;2022-10-31T15:37:02;18.80;85.00
24338;DHT22;12457;50.832;4.346;2022-10-31T15:39:28;18.80;86.60
24338;DHT22;12457;50.832;4.346;2022-10-31T15:41:57;18.90;85.20
24338;DHT22;12457;50.832;4.346;2022-10-31T15:44:35;18.80;86.80
24338;DHT22;12457;50.832;4.346;2022-10-31T15:47:12;18.70;90.00
24338;DHT22;12457;50.832;4.346;2022-10-31T15:49:50;18.60;90.80
24338;DHT22;12457;50.832;4.346;2022-10-31T15:52:38;18.50;92.60
24338;DHT22;12457;50.832;4.346;2022-10-31T15:57:40;18.40;93.10
24338;DHT22;12457;50.832;4.346;2022-10-31T16:00:26;18.30;94.30
24338;DHT22;12457;50.832;4.346;2022-10-31T16:03:23;18.30;96.30
24338;DHT22;12457;50.832;4.346;2022-10-31T16:05:53;18.20;95.40
24338;DHT22;12457;50.832;4.346;2022-10-31T16:10:47;18.10;97.20
24338;DHT22;12457;50.832;4.346;2022-10-31T16:13:13;18.00;98.40
24338;DHT22;12457;50.832;4.346;2022-10-31T16:15:50;17.80;99.90
24338;DHT22;12457;50.832;4.346;2022-10-31T16:18:17;17.70;99.90
24338;DHT22;12457;50.832;4.346;2022-10-31T16:20:48;17.70;99.90
24338;DHT22;12457;50.832;4.346;2022-10-31T16:23:17;17.70;99.90
24338;DHT22;12457;50.832;4.346;2022-10-31T16:25:43;17.80;99.90
24338;DHT22;12457;50.832;4.346;2022-10-31T16:28:21;17.70;99.90
24338;DHT22;12457;50.832;4.346;2022-10-31T16:30:53;17.60;99.90
24338;DHT22;12457;50.832;4.346;2022-10-31T16:33:31;17.60;99.90
24338;DHT22;12457;50.832;4.346;2022-10-31T16:38:54;17.70;99.90
24338;DHT22;12457;50.832;4.346;2022-10-31T16:41:44;17.70;99.90
24338;DHT22;12457;50.832;4.346;2022-10-31T16:44:26;17.80;99.90
24338;DHT22;12457;50.832;4.346;2022-10-31T16:47:14;17.60;99.90
24338;DHT22;12457;50.832;4.346;2022-10-31T16:49:46;17.40;99.90
24338;DHT22;12457;50.832;4.346;2022-10-31T16:52:14;17.30;99.90
24338;DHT22;12457;50.832;4.346;2022-10-31T16:54:40;17.20;99.90
24338;DHT22;12457;50.832;4.346;2022-10-31T16:57:06;17.10;99.90
24338;DHT22;12457;50.832;4.346;2022-10-31T16:59:41;17.10;99.90
24338;DHT22;12457;50.832;4.346;2022-10-31T17:02:13;17.20;98.50
24338;DHT22;12457;50.832;4.346;2022-10-31T17:04:39;17.10;97.10
24338;DHT22;12457;50.832;4.346;2022-10-31T17:07:05;17.10;95.80
24338;DHT22;12457;50.832;4.346;2022-10-31T17:09:31;17.20;94.80
24338;DHT22;12457;50.832;4.346;2022-10-31T17:11:57;17.10;92.40
24338;DHT22;12457;50.832;4.346;2022-10-31T17:14:23;17.10;91.90
24338;DHT22;12457;50.832;4.346;2022-10-31T17:16:52;17.10;91.00
24338;DHT22;12457;50.832;4.346;2022-10-31T17:19:18;17.10;90.90
24338;DHT22;12457;50.832;4.346;2022-10-31T17:21:44;17.10;91.40
24338;DHT22;12457;50.832;4.346;2022-10-31T17:24:14;17.10;89.30
24338;DHT22;12457;50.832;4.346;2022-10-31T17:26:40;17.10;90.10
24338;DHT22;12457;50.832;4.346;2022-10-31T17:29:05;17.00;90.50
24338;DHT22;12457;50.832;4.346;2022-10-31T17:31:33;17.00;90.70
24338;DHT22;12457;50.832;4.346;2022-10-31T17:34:01;16.90;90.90
24338;DHT22;12457;50.832;4.346;2022-10-31T17:36:30;16.90;90.50
24338;DHT22;12457;50.832;4.346;2022-10-31T17:38:56;17.00;90.00
24338;DHT22;12457;50.832;4.346;2022-10-31T17:41:22;17.00;89.50
24338;DHT22;12457;50.832;4.346;2022-10-31T17:43:47;16.90;89.60
24338;DHT22;12457;50.832;4.346;2022-10-31T17:46:13;17.00;90.30
24338;DHT22;12457;50.832;4.346;2022-10-31T17:48:39;16.90;90.40
24338;DHT22;12457;50.832;4.346;2022-10-31T17:51:06;16.90;90.20
24338;DHT22;12457;50.832;4.346;2022-10-31T17:53:33;17.00;90.00
24338;DHT22;12457;50.832;4.346;2022-10-31T17:56:05;16.90;90.50
24338;DHT22;12457;50.832;4.346;2022-10-31T17:58:33;16.90;90.70
24338;DHT22;12457;50.832;4.346;2022-10-31T18:01:00;16.90;90.60
24338;DHT22;12457;50.832;4.346;2022-10-31T18:03:26;17.00;90.90
24338;DHT22;12457;50.832;4.346;2022-10-31T18:05:56;16.90;91.00
24338;DHT22;12457;50.832;4.346;2022-10-31T18:08:30;16.90;91.30
24338;DHT22;12457;50.832;4.346;2022-10-31T18:10:56;16.90;91.10
24338;DHT22;12457;50.832;4.346;2022-10-31T18:13:28;16.90;90.90
24338;DHT22;12457;50.832;4.346;2022-10-31T18:15:54;16.90;91.20
24338;DHT22;12457;50.832;4.346;2022-10-31T18:18:20;16.90;91.40
24338;DHT22;12457;50.832;4.346;2022-10-31T18:20:46;16.90;91.70
24338;DHT22;12457;50.832;4.346;2022-10-31T18:23:12;16.80;91.60